createdAt,value
2022-11-12T00:01:05.829Z,8.01
2022-11-12T00:03:33.745Z,7.90
2022-11-12T00:06:01.788Z,7.77
2022-11-12T00:08:30.050Z,7.61
2022-11-12T00:10:58.166Z,7.59
2022-11-12T00:13:26.109Z,7.74
2022-11-12T00:15:55.425Z,7.60
2022-11-12T00:18:24.056Z,7.38
2022-11-12T00:20:52.201Z,7.61
2022-11-12T00:23:20.139Z,7.74
2022-11-12T00:25:48.076Z,7.63
2022-11-12T00:28:15.969Z,7.38
2022-11-12T00:30:43.908Z,7.46
2022-11-12T00:33:13.294Z,7.45
2022-11-12T00:35:41.171Z,7.19
2022-11-12T00:38:09.071Z,7.21
2022-11-12T00:40:37.008Z,7.58
2022-11-12T00:43:04.893Z,7.61
2022-11-12T00:45:32.830Z,7.61
2022-11-12T00:48:00.741Z,7.27
2022-11-12T00:50:30.037Z,7.28
2022-11-12T00:52:57.932Z,7.32
2022-11-12T00:55:25.844Z,7.33
2022-11-12T00:57:53.893Z,7.47
2022-11-12T01:00:22.081Z,7.44
2022-11-12T01:02:51.423Z,7.43
2022-11-12T01:05:20.202Z,7.41
2022-11-12T01:07:54.835Z,7.41
2022-11-12T01:10:24.169Z,7.54
2022-11-12T01:12:52.084Z,7.63
2022-11-12T01:15:20.136Z,7.58
2022-11-12T01:17:48.051Z,7.59
2022-11-12T01:20:16.011Z,7.52
2022-11-12T01:22:43.968Z,7.51
2022-11-12T01:25:13.319Z,7.52
2022-11-12T01:27:41.193Z,7.65
2022-11-12T01:30:10.431Z,7.64
2022-11-12T01:32:38.624Z,7.63
2022-11-12T01:35:07.214Z,7.66
2022-11-12T01:37:35.184Z,7.60
2022-11-12T01:40:03.156Z,7.67
2022-11-12T01:42:33.763Z,7.67
2022-11-12T01:45:01.670Z,7.64
2022-11-12T01:47:31.482Z,7.67
2022-11-12T01:50:01.563Z,7.62
2022-11-12T01:52:32.353Z,7.70
2022-11-12T01:55:04.448Z,7.65
2022-11-12T01:57:37.500Z,7.74
2022-11-12T02:00:10.312Z,7.76
2022-11-12T02:02:39.064Z,7.41
2022-11-12T02:05:10.617Z,7.56
2022-11-12T02:07:40.995Z,7.45
2022-11-12T02:10:10.776Z,7.24
2022-11-12T02:12:57.465Z,7.40
2022-11-12T02:15:26.483Z,7.00
2022-11-12T02:17:54.464Z,6.80
2022-11-12T02:20:22.440Z,7.46
2022-11-12T02:22:51.740Z,7.27
2022-11-12T02:25:22.853Z,6.90
2022-11-12T02:27:51.985Z,6.94
2022-11-12T02:30:20.178Z,7.01
2022-11-12T02:32:48.108Z,6.93
2022-11-12T02:35:16.173Z,6.94
2022-11-12T02:37:44.084Z,7.07
2022-11-12T02:40:13.770Z,7.18
2022-11-12T02:42:41.672Z,6.91
2022-11-12T02:45:10.349Z,6.97
2022-11-12T02:47:38.241Z,6.56
2022-11-12T02:50:06.833Z,6.72
2022-11-12T02:52:35.088Z,6.56
2022-11-12T02:55:03.044Z,6.57
2022-11-12T02:57:32.294Z,6.45
2022-11-12T03:00:00.217Z,6.59
2022-11-12T03:02:28.105Z,6.70
2022-11-12T03:04:56.017Z,6.60
2022-11-12T03:07:23.896Z,6.68
2022-11-12T03:09:52.436Z,6.75
2022-11-12T03:12:20.348Z,6.69
2022-11-12T03:14:49.707Z,6.66
2022-11-12T03:17:17.581Z,6.65
2022-11-12T03:19:45.480Z,6.79
2022-11-12T03:22:13.537Z,6.56
2022-11-12T03:24:41.448Z,6.56
2022-11-12T03:27:09.349Z,6.73
2022-11-12T03:29:37.231Z,6.78
2022-11-12T03:32:06.694Z,6.88
2022-11-12T03:34:34.563Z,6.66
2022-11-12T03:37:03.150Z,6.83
2022-11-12T03:39:31.046Z,7.09
2022-11-12T03:41:58.933Z,6.74
2022-11-12T03:44:26.884Z,6.96
2022-11-12T03:46:54.817Z,6.81
2022-11-12T03:49:24.115Z,6.34
2022-11-12T03:51:52.020Z,6.23
2022-11-12T03:54:20.194Z,6.47
2022-11-12T03:56:48.064Z,6.67
2022-11-12T03:59:16.013Z,6.55
2022-11-12T04:01:43.885Z,6.27
2022-11-12T04:04:12.199Z,6.27
2022-11-12T04:07:00.496Z,6.61
2022-11-12T04:09:28.505Z,6.36
2022-11-12T04:12:16.364Z,6.18
2022-11-12T04:14:43.298Z,6.60
2022-11-12T04:17:28.338Z,6.45
2022-11-12T04:20:13.799Z,5.99
2022-11-12T04:22:43.066Z,6.43
2022-11-12T04:25:28.389Z,6.79
2022-11-12T04:27:56.273Z,5.76
2022-11-12T04:30:23.172Z,5.79
2022-11-12T04:32:54.539Z,6.53
2022-11-12T04:35:23.488Z,6.42
2022-11-12T04:37:52.964Z,6.05
2022-11-12T04:40:41.740Z,6.46
2022-11-12T04:43:30.137Z,6.57
2022-11-12T04:45:58.126Z,5.95
2022-11-12T04:48:26.683Z,6.35
2022-11-12T04:50:57.285Z,6.18
2022-11-12T04:53:27.027Z,5.72
2022-11-12T04:55:56.140Z,6.37
2022-11-12T04:58:24.727Z,6.53
2022-11-12T05:00:52.995Z,5.89
2022-11-12T05:03:20.996Z,5.69
2022-11-12T05:05:48.895Z,6.35
2022-11-12T05:08:16.762Z,6.25
2022-11-12T05:10:46.069Z,5.62
2022-11-12T05:13:13.993Z,6.36
2022-11-12T05:15:41.879Z,6.22
2022-11-12T05:18:09.757Z,5.42
2022-11-12T05:20:37.898Z,5.98
2022-11-12T05:23:07.436Z,6.32
2022-11-12T05:25:36.221Z,5.59
2022-11-12T05:28:07.269Z,5.08
2022-11-12T05:30:35.830Z,5.50
2022-11-12T05:33:03.854Z,6.02
2022-11-12T05:35:31.812Z,6.04
2022-11-12T05:37:59.704Z,5.72
2022-11-12T05:40:27.606Z,5.31
2022-11-12T05:42:55.529Z,4.95
2022-11-12T05:45:24.831Z,5.11
2022-11-12T05:47:52.781Z,5.76
2022-11-12T05:50:20.713Z,5.36
2022-11-12T05:52:48.578Z,4.62
2022-11-12T05:55:16.682Z,4.56
2022-11-12T05:57:44.566Z,4.67
2022-11-12T06:00:13.912Z,4.85
2022-11-12T06:02:43.303Z,4.90
2022-11-12T06:05:11.417Z,4.77
2022-11-12T06:07:39.651Z,4.54
2022-11-12T06:10:08.582Z,4.57
2022-11-12T06:12:36.467Z,4.83
2022-11-12T06:15:04.506Z,5.13
2022-11-12T06:17:32.428Z,5.23
2022-11-12T06:20:01.723Z,4.65
2022-11-12T06:22:29.711Z,4.27
2022-11-12T06:24:57.650Z,4.38
2022-11-12T06:27:25.577Z,4.81
2022-11-12T06:29:53.600Z,5.09
2022-11-12T06:32:21.468Z,5.15
2022-11-12T06:34:50.623Z,5.54
2022-11-12T06:37:19.879Z,5.79
2022-11-12T06:39:47.771Z,4.82
2022-11-12T06:42:15.699Z,4.16
2022-11-12T06:44:43.907Z,5.06
2022-11-12T06:47:12.081Z,5.44
2022-11-12T06:49:39.985Z,4.97
2022-11-12T06:52:11.068Z,4.86
2022-11-12T06:54:42.952Z,5.77
2022-11-12T06:57:10.914Z,5.52
2022-11-12T06:59:38.824Z,4.78
2022-11-12T07:02:06.814Z,4.83
2022-11-12T07:04:34.720Z,4.97
2022-11-12T07:07:05.651Z,5.00
2022-11-12T07:09:35.841Z,5.01
2022-11-12T07:12:05.534Z,5.21
2022-11-12T07:14:33.453Z,5.20
2022-11-12T07:17:01.553Z,5.48
2022-11-12T07:19:29.507Z,5.50
2022-11-12T07:21:57.408Z,5.64
2022-11-12T07:24:25.297Z,5.52
2022-11-12T07:26:53.194Z,5.17
2022-11-12T07:29:42.585Z,5.07
2022-11-12T07:32:10.431Z,5.33
2022-11-12T07:34:38.357Z,5.15
2022-11-12T07:37:06.234Z,5.21
2022-11-12T07:39:34.128Z,5.38
2022-11-12T07:42:02.005Z,5.35
2022-11-12T07:44:31.293Z,5.28
2022-11-12T07:46:59.165Z,5.36
2022-11-12T07:49:27.075Z,5.50
2022-11-12T07:51:54.997Z,5.65
2022-11-12T07:54:22.870Z,5.82
2022-11-12T07:56:50.780Z,5.75
2022-11-12T07:59:18.652Z,5.61
2022-11-12T08:01:48.063Z,5.23
2022-11-12T08:04:16.099Z,5.00
2022-11-12T08:06:44.254Z,5.09
2022-11-12T08:09:12.260Z,5.39
2022-11-12T08:11:42.026Z,5.58
2022-11-12T08:14:09.926Z,5.68
2022-11-12T08:16:37.841Z,5.67
2022-11-12T08:19:07.176Z,5.59
2022-11-12T08:21:35.061Z,5.69
2022-11-12T08:24:03.104Z,5.88
2022-11-12T08:26:30.978Z,5.89
2022-11-12T08:29:00.123Z,5.86
2022-11-12T08:31:29.588Z,5.96
2022-11-12T08:33:57.467Z,6.07
2022-11-12T08:36:26.730Z,6.21
2022-11-12T08:38:54.704Z,6.30
2022-11-12T08:41:22.618Z,6.38
2022-11-12T08:43:50.524Z,6.45
2022-11-12T08:46:18.405Z,6.58
2022-11-12T08:48:46.295Z,6.70
2022-11-12T08:51:14.184Z,6.75
2022-11-12T08:53:43.468Z,6.84
2022-11-12T08:56:11.389Z,6.96
2022-11-12T08:58:39.272Z,7.18
2022-11-12T09:01:08.578Z,7.20
2022-11-12T09:03:36.745Z,7.19
2022-11-12T09:06:05.823Z,7.34
2022-11-12T09:08:35.875Z,7.58
2022-11-12T09:11:05.650Z,7.60
2022-11-12T09:13:33.748Z,7.44
2022-11-12T09:16:06.235Z,7.75
2022-11-12T09:18:34.868Z,7.82
2022-11-12T09:21:04.700Z,7.89
2022-11-12T09:23:32.675Z,7.90
2022-11-12T09:26:00.589Z,8.15
2022-11-12T09:28:29.967Z,8.27
2022-11-12T09:30:57.855Z,8.05
2022-11-12T09:33:27.982Z,8.45
2022-11-12T09:35:56.723Z,8.61
2022-11-12T09:38:25.200Z,8.79
2022-11-12T09:41:28.667Z,8.82
2022-11-12T09:44:01.539Z,8.91
2022-11-12T09:46:40.926Z,8.99
2022-11-12T09:49:14.149Z,9.13
2022-11-12T09:51:44.927Z,9.19
2022-11-12T09:54:21.050Z,9.32
2022-11-12T09:56:49.531Z,9.38
2022-11-12T09:59:19.146Z,9.50
2022-11-12T10:02:01.269Z,9.69
2022-11-12T10:04:56.593Z,9.79
2022-11-12T10:07:33.398Z,9.87
2022-11-12T10:10:05.045Z,9.83
2022-11-12T10:12:43.133Z,10.09
2022-11-12T10:15:51.206Z,10.07
2022-11-12T10:18:25.896Z,9.92
2022-11-12T10:20:56.969Z,10.16
2022-11-12T10:23:28.929Z,10.28
2022-11-12T10:25:59.332Z,10.45
2022-11-12T10:28:33.201Z,10.57
2022-11-12T10:31:13.040Z,10.74
2022-11-12T10:33:41.001Z,10.95
2022-11-12T10:36:26.504Z,10.60
2022-11-12T10:38:55.969Z,10.70
2022-11-12T10:41:25.945Z,10.75
2022-11-12T10:43:59.109Z,10.85
2022-11-12T10:46:29.983Z,10.95
2022-11-12T10:49:03.615Z,10.97
2022-11-12T10:51:33.539Z,10.94
2022-11-12T10:54:21.052Z,11.15
2022-11-12T10:56:54.981Z,11.36
2022-11-12T10:59:24.498Z,11.45
2022-11-12T11:01:58.325Z,11.59
2022-11-12T11:04:36.587Z,11.51
2022-11-12T11:07:06.856Z,11.63
2022-11-12T11:09:35.687Z,11.59
2022-11-12T11:12:03.689Z,11.43
2022-11-12T11:14:34.035Z,11.53
2022-11-12T11:17:08.720Z,11.68
2022-11-12T11:19:39.201Z,11.89
2022-11-12T11:22:16.196Z,11.87
2022-11-12T11:24:52.679Z,11.92
2022-11-12T11:27:30.124Z,11.76
2022-11-12T11:30:06.913Z,11.99
2022-11-12T11:32:51.671Z,12.07
2022-11-12T11:35:27.201Z,12.00
2022-11-12T11:38:07.057Z,11.92
2022-11-12T11:40:38.181Z,12.02
2022-11-12T11:43:17.743Z,12.06
2022-11-12T11:45:57.484Z,11.97
2022-11-12T11:48:36.057Z,11.65
2022-11-12T11:51:07.878Z,11.56
2022-11-12T11:53:41.445Z,11.63
2022-11-12T11:56:14.533Z,11.79
2022-11-12T11:59:06.060Z,11.73
2022-11-12T12:01:40.772Z,11.25
2022-11-12T12:04:27.440Z,11.16
2022-11-12T12:07:06.624Z,11.38
2022-11-12T12:09:38.588Z,11.55
2022-11-12T12:12:14.321Z,11.70
2022-11-12T12:14:50.629Z,11.49
2022-11-12T12:17:31.863Z,11.56
2022-11-12T12:20:06.468Z,11.58
2022-11-12T12:22:38.785Z,11.69
2022-11-12T12:25:12.103Z,11.68
2022-11-12T12:27:47.413Z,11.75
2022-11-12T12:30:20.004Z,11.62
2022-11-12T12:32:52.915Z,11.58
2022-11-12T12:35:25.589Z,11.52
2022-11-12T12:37:58.766Z,11.65
2022-11-12T12:40:32.648Z,11.66
2022-11-12T12:43:06.845Z,11.72
2022-11-12T12:45:39.716Z,11.70
2022-11-12T12:48:09.492Z,11.68
2022-11-12T12:50:40.823Z,11.57
2022-11-12T12:53:19.170Z,11.41
2022-11-12T12:55:48.913Z,11.49
2022-11-12T12:58:25.517Z,11.49
2022-11-12T13:00:55.050Z,11.43
2022-11-12T13:03:56.869Z,11.43
2022-11-12T13:06:29.081Z,11.43
2022-11-12T13:09:00.189Z,11.43
2022-11-12T13:12:07.056Z,11.36
2022-11-12T13:14:59.459Z,11.55
2022-11-12T13:17:48.697Z,11.55
2022-11-12T13:20:35.583Z,11.43
2022-11-12T13:23:09.012Z,11.34
2022-11-12T13:25:37.314Z,11.37
2022-11-12T13:28:10.359Z,11.39
2022-11-12T13:30:57.871Z,11.39
2022-11-12T13:33:32.646Z,11.40
2022-11-12T13:36:26.689Z,11.38
2022-11-12T13:39:00.160Z,11.54
2022-11-12T13:41:47.608Z,11.60
2022-11-12T13:44:17.584Z,11.52
2022-11-12T13:46:45.910Z,11.40
2022-11-12T13:49:15.480Z,11.46
2022-11-12T13:51:45.253Z,11.57
2022-11-12T13:54:33.278Z,11.50
2022-11-12T13:57:28.242Z,11.47
2022-11-12T14:00:21.705Z,11.49
2022-11-12T14:02:53.612Z,11.54
2022-11-12T14:05:24.605Z,11.60
2022-11-12T14:08:08.548Z,11.68
2022-11-12T14:10:46.369Z,11.67
2022-11-12T14:13:46.159Z,11.68
2022-11-12T14:16:31.204Z,11.59
2022-11-12T14:19:23.388Z,11.66
2022-11-12T14:22:11.234Z,11.58
2022-11-12T14:24:39.165Z,11.42
2022-11-12T14:27:23.085Z,11.49
2022-11-12T14:29:51.037Z,11.48
2022-11-12T14:32:19.868Z,11.27
2022-11-12T14:34:47.753Z,11.31
2022-11-12T14:37:37.207Z,11.35
2022-11-12T14:40:16.997Z,11.08
2022-11-12T14:42:46.698Z,10.98
2022-11-12T14:45:17.112Z,10.93
2022-11-12T14:47:45.477Z,11.03
2022-11-12T14:50:15.713Z,11.11
2022-11-12T14:52:46.011Z,11.10
2022-11-12T14:55:16.163Z,10.82
2022-11-12T14:57:44.540Z,10.58
2022-11-12T15:00:21.984Z,10.59
2022-11-12T15:02:59.345Z,10.86
2022-11-12T15:05:28.217Z,10.91
2022-11-12T15:07:58.551Z,10.58
2022-11-12T15:10:32.105Z,10.33
2022-11-12T15:13:08.240Z,10.57
2022-11-12T15:15:39.516Z,10.56
2022-11-12T15:18:09.395Z,10.13
2022-11-12T15:20:37.340Z,10.11
2022-11-12T15:23:05.565Z,10.42
2022-11-12T15:25:33.747Z,10.46
2022-11-12T15:28:13.917Z,10.37
2022-11-12T15:30:43.472Z,9.68
2022-11-12T15:33:19.133Z,9.62
2022-11-12T15:35:47.316Z,10.03
2022-11-12T15:38:19.117Z,10.05
2022-11-12T15:40:47.807Z,9.96
2022-11-12T15:43:18.110Z,9.55
2022-11-12T15:45:50.728Z,9.43
2022-11-12T15:48:18.664Z,9.62
2022-11-12T15:50:46.961Z,9.67
2022-11-12T15:53:14.969Z,9.66
2022-11-12T15:55:43.384Z,9.58
2022-11-12T15:58:16.181Z,9.40
2022-11-12T16:00:44.242Z,9.57
2022-11-12T16:03:15.752Z,9.48
2022-11-12T16:05:43.932Z,9.44
2022-11-12T16:08:12.093Z,9.59
2022-11-12T16:10:40.949Z,9.45
2022-11-12T16:13:14.349Z,9.26
2022-11-12T16:15:42.347Z,8.89
2022-11-12T16:18:11.233Z,8.88
2022-11-12T16:20:40.764Z,8.88
2022-11-12T16:23:08.692Z,8.70
2022-11-12T16:25:38.215Z,8.64
2022-11-12T16:28:10.140Z,8.53
2022-11-12T16:30:38.081Z,8.49
2022-11-12T16:33:05.967Z,8.37
2022-11-12T16:35:35.983Z,8.37
2022-11-12T16:38:10.369Z,8.47
2022-11-12T16:40:38.340Z,8.40
2022-11-12T16:43:06.250Z,8.37
2022-11-12T16:45:36.569Z,8.30
2022-11-12T16:48:08.290Z,8.25
2022-11-12T16:50:36.661Z,8.05
2022-11-12T16:53:05.986Z,8.21
2022-11-12T16:55:33.885Z,8.15
2022-11-12T16:58:01.765Z,8.11
2022-11-12T17:00:29.717Z,8.07
2022-11-12T17:02:57.649Z,7.91
2022-11-12T17:05:26.796Z,7.52
2022-11-12T17:07:57.175Z,7.39
2022-11-12T17:10:26.432Z,7.64
2022-11-12T17:12:54.544Z,8.12
2022-11-12T17:15:22.459Z,8.20
2022-11-12T17:17:50.340Z,8.20
2022-11-12T17:20:18.508Z,7.97
2022-11-12T17:22:46.462Z,7.72
2022-11-12T17:25:14.360Z,7.79
2022-11-12T17:27:43.700Z,7.69
2022-11-12T17:30:12.471Z,7.56
2022-11-12T17:32:40.392Z,7.40
2022-11-12T17:35:09.054Z,7.27
2022-11-12T17:37:36.972Z,7.59
2022-11-12T17:40:05.629Z,7.76
2022-11-12T17:42:33.536Z,7.80
2022-11-12T17:45:02.811Z,7.49
2022-11-12T17:47:30.675Z,7.26
2022-11-12T17:49:58.671Z,7.12
2022-11-12T17:52:26.618Z,6.87
2022-11-12T17:54:54.557Z,7.01
2022-11-12T17:57:22.472Z,7.32
2022-11-12T17:59:50.421Z,7.51
2022-11-12T18:02:20.219Z,7.55
2022-11-12T18:04:48.100Z,7.52
2022-11-12T18:07:16.063Z,7.47
2022-11-12T18:09:43.973Z,7.29
2022-11-12T18:12:11.857Z,7.01
2022-11-12T18:14:39.765Z,7.14
2022-11-12T18:17:08.112Z,7.15
2022-11-12T18:19:37.508Z,7.02
2022-11-12T18:22:05.446Z,6.89
2022-11-12T18:24:33.430Z,6.83
2022-11-12T18:27:01.357Z,7.13
2022-11-12T18:29:29.241Z,6.67
2022-11-12T18:31:57.169Z,6.13
2022-11-12T18:34:25.042Z,6.03
2022-11-12T18:36:54.342Z,6.53
2022-11-12T18:39:22.222Z,6.47
2022-11-12T18:41:51.336Z,6.29
2022-11-12T18:44:24.749Z,6.14
2022-11-12T18:46:54.104Z,6.36
2022-11-12T18:49:22.020Z,6.57
2022-11-12T18:51:49.901Z,6.53
2022-11-12T18:54:19.344Z,6.45
2022-11-12T18:56:47.953Z,6.50
2022-11-12T18:59:16.422Z,6.12
2022-11-12T19:01:44.316Z,6.19
2022-11-12T19:04:12.687Z,6.49
2022-11-12T19:06:40.672Z,6.52
2022-11-12T19:09:11.476Z,6.68
2022-11-12T19:11:40.789Z,6.64
2022-11-12T19:14:08.862Z,6.59
2022-11-12T19:16:38.312Z,6.43
2022-11-12T19:19:06.323Z,5.73
2022-11-12T19:21:34.197Z,5.72
2022-11-12T19:24:02.093Z,5.78
2022-11-12T19:26:30.403Z,6.11
2022-11-12T19:28:59.906Z,6.26
2022-11-12T19:31:29.164Z,6.30
2022-11-12T19:33:57.106Z,6.15
2022-11-12T19:36:26.633Z,6.03
2022-11-12T19:38:56.384Z,6.22
2022-11-12T19:41:24.577Z,6.06
2022-11-12T19:43:52.626Z,5.64
2022-11-12T19:46:22.253Z,5.59
2022-11-12T19:48:51.152Z,5.84
2022-11-12T19:51:19.153Z,5.89
2022-11-12T19:53:47.046Z,5.86
2022-11-12T19:56:17.208Z,6.07
2022-11-12T19:58:46.217Z,6.16
2022-11-12T20:01:16.376Z,5.79
2022-11-12T20:03:46.044Z,5.32
2022-11-12T20:06:15.289Z,5.27
2022-11-12T20:08:43.171Z,5.74
2022-11-12T20:11:11.241Z,5.65
2022-11-12T20:13:39.444Z,5.37
2022-11-12T20:16:08.280Z,5.05
2022-11-12T20:18:36.253Z,4.89
2022-11-12T20:21:06.299Z,5.25
2022-11-12T20:23:34.772Z,5.61
2022-11-12T20:26:03.556Z,5.44
2022-11-12T20:28:31.701Z,5.21
2022-11-12T20:31:03.850Z,5.32
2022-11-12T20:33:31.925Z,5.43
2022-11-12T20:36:06.101Z,5.33
2022-11-12T20:38:37.270Z,5.49
2022-11-12T20:41:06.419Z,5.49
2022-11-12T20:43:35.689Z,5.76
2022-11-12T20:46:03.632Z,5.62
2022-11-12T20:48:31.653Z,5.73
2022-11-12T20:51:23.302Z,5.73
2022-11-12T20:53:58.756Z,5.89
2022-11-12T20:56:29.535Z,6.00
2022-11-12T20:58:57.506Z,5.93
2022-11-12T21:01:26.785Z,5.42
2022-11-12T21:03:55.017Z,5.01
2022-11-12T21:06:26.121Z,5.00
2022-11-12T21:08:54.144Z,5.29
2022-11-12T21:11:23.432Z,5.69
2022-11-12T21:13:51.571Z,5.50
2022-11-12T21:16:19.508Z,5.38
2022-11-12T21:18:47.437Z,5.38
2022-11-12T21:21:18.366Z,5.67
2022-11-12T21:23:49.229Z,5.64
2022-11-12T21:26:18.659Z,5.57
2022-11-12T21:28:47.574Z,5.54
2022-11-12T21:31:17.137Z,5.51
2022-11-12T21:33:45.176Z,5.42
2022-11-12T21:36:16.377Z,5.57
2022-11-12T21:38:44.745Z,5.70
2022-11-12T21:41:17.189Z,5.61
2022-11-12T21:43:45.791Z,5.54
2022-11-12T21:46:15.280Z,5.43
2022-11-12T21:48:43.876Z,5.42
2022-11-12T21:51:13.630Z,5.53
2022-11-12T21:53:43.165Z,5.40
2022-11-12T21:56:14.234Z,5.16
2022-11-12T21:58:42.497Z,5.21
2022-11-12T22:01:11.725Z,5.27
2022-11-12T22:03:40.871Z,5.43
2022-11-12T22:06:09.052Z,5.47
2022-11-12T22:08:36.948Z,5.46
2022-11-12T22:11:06.473Z,5.38
2022-11-12T22:13:35.988Z,5.40
2022-11-12T22:16:06.776Z,5.47
2022-11-12T22:18:35.126Z,5.22
2022-11-12T22:21:05.136Z,5.23
2022-11-12T22:23:35.846Z,5.39
2022-11-12T22:26:04.602Z,5.51
2022-11-12T22:28:33.799Z,5.47
2022-11-12T22:31:06.285Z,5.29
2022-11-12T22:33:34.580Z,5.33
2022-11-12T22:36:03.005Z,5.40
2022-11-12T22:38:35.102Z,5.57
2022-11-12T22:41:04.554Z,5.65
2022-11-12T22:43:33.024Z,5.27
2022-11-12T22:46:11.072Z,5.17
2022-11-12T22:48:39.529Z,5.35
2022-11-12T22:51:09.002Z,5.54
2022-11-12T22:53:37.080Z,5.56
2022-11-12T22:56:05.877Z,5.39
2022-11-12T22:58:36.446Z,5.35
2022-11-12T23:01:05.346Z,5.38
2022-11-12T23:03:35.023Z,5.25
2022-11-12T23:06:05.349Z,5.37
2022-11-12T23:08:35.853Z,5.48
2022-11-12T23:11:04.077Z,5.61
2022-11-12T23:13:31.985Z,5.65
2022-11-12T23:16:00.087Z,5.57
2022-11-12T23:18:28.252Z,5.48
2022-11-12T23:21:02.704Z,5.40
2022-11-12T23:23:30.596Z,5.38
2022-11-12T23:26:03.490Z,5.33
2022-11-12T23:28:31.682Z,5.30
2022-11-12T23:30:59.899Z,5.36
2022-11-12T23:33:27.804Z,5.47
2022-11-12T23:35:57.089Z,5.51
2022-11-12T23:38:25.305Z,5.46
2022-11-12T23:40:54.539Z,5.46
2022-11-12T23:43:22.726Z,5.42
2022-11-12T23:45:51.955Z,5.39
2022-11-12T23:48:20.106Z,5.40
2022-11-12T23:50:49.133Z,5.39
2022-11-12T23:53:18.626Z,5.26
2022-11-12T23:55:46.502Z,5.08
2022-11-12T23:58:14.379Z,5.22
